Aplicació Alertes

Dades de l'estació automàtica Barcelona - el Raval

?
?
Resum diari 23:00 TU
Dades diàries de l'estació meteorològica
Temperatura mitjana 16.0 °C
Temperatura màxima 21.1 °C 14:17 TU
Temperatura mínima 13.9 °C 7:11 TU
Humitat relativa mitjana 59%
Precipitació acumulada 0.0 mm
Ratxa màxima del vent (10 m) 32.8 km/h - 305º 11:50 TU
Pressió atmosfèrica mitjana 1021.4 hPa
Irradiació solar global 10.5 MJ/m2

El tram horari està expressat en Temps Universal (TU). Cal sumar una hora en horari d'hivern i dues en horari d'estiu per passar a l'hora oficial.

Barcelona - el Raval

Metadades estació meteorol´gica
Municipi Barcelona
Comarca Barcelonès
Altitud 33 m
Data alta 11.10.2006
Estat actual Operativa
Dades de període
Període
TU
TM
°C
TX
°C
TN
°C
HRM
%
PPT
mm
VVM (10 m)
km/h
DVM (10 m)
graus
VVX (10 m)
km/h
PM
hPa
RS
W/m2
00:00 - 00:30 16.0 16.2 15.8 56 0.0 4.3 113 14.8 1021.0 0
00:30 - 01:00 15.8 15.9 15.6 57 0.0 7.6 248 27.0 1020.9 0
01:00 - 01:30 15.7 15.8 15.6 57 0.0 5.8 179 17.3 1020.8 0
01:30 - 02:00 15.6 15.8 15.4 58 0.0 8.3 62 22.0 1020.9 0
02:00 - 02:30 15.3 15.4 15.3 58 0.0 13.0 62 29.2 1020.8 0
02:30 - 03:00 15.3 15.3 15.2 58 0.0 8.6 25 26.3 1020.7 0
03:00 - 03:30 15.4 15.8 15.1 57 0.0 8.6 91 26.6 1020.6 0
03:30 - 04:00 14.8 15.0 14.6 60 0.0 5.4 152 13.0 1020.8 0
04:00 - 04:30 14.7 14.8 14.5 60 0.0 4.0 169 9.0 1020.8 0
04:30 - 05:00 14.6 14.9 14.3 61 0.0 8.6 264 17.3 1021.1 0
05:00 - 05:30 14.2 14.3 14.0 63 0.0 9.4 286 20.2 1021.1 0
05:30 - 06:00 14.0 14.2 13.9 63 0.0 8.3 276 18.4 1021.1 0
06:00 - 06:30 14.2 14.4 14.1 62 0.0 6.8 330 26.6 1021.1 0
06:30 - 07:00 14.2 14.4 14.0 62 0.0 6.8 302 22.7 1021.2 0
07:00 - 07:30 14.0 14.1 13.9 63 0.0 5.8 346 27.4 1021.3 10
07:30 - 08:00 14.3 14.5 14.1 62 0.0 4.0 74 15.5 1021.6 67
08:00 - 08:30 14.9 15.2 14.6 58 0.0 5.4 315 13.3 1021.7 143
08:30 - 09:00 14.8 15.2 14.3 59 0.0 10.4 293 20.9 1022.0 227
09:00 - 09:30 14.6 14.9 14.3 61 0.0 10.8 285 24.1 1022.2 303
09:30 - 10:00 15.1 15.6 14.8 59 0.0 11.5 290 27.4 1022.3 372
10:00 - 10:30 16.0 16.3 15.6 56 0.0 9.4 280 29.2 1022.2 428
10:30 - 11:00 16.5 17.0 16.2 55 0.0 14.4 282 28.1 1022.0 476
11:00 - 11:30 17.3 17.7 16.9 52 0.0 13.3 281 31.0 1021.5 517
11:30 - 12:00 18.1 18.5 17.6 49 0.0 17.3 314 32.8 1021.0 560
12:00 - 12:30 18.9 19.3 18.6 47 0.0 15.5 322 28.8 1020.6 559
12:30 - 13:00 19.4 19.6 19.1 45 0.0 15.8 312 29.9 1020.2 515
13:00 - 13:30 20.0 20.3 19.5 44 0.0 12.2 323 26.6 1020.1 498
13:30 - 14:00 20.5 20.8 20.2 42 0.0 11.5 324 24.8 1020.0 444
14:00 - 14:30 20.7 21.1 20.2 41 0.0 7.6 311 18.0 1019.8 352
14:30 - 15:00 20.2 20.5 20.1 43 0.0 7.2 323 19.8 1019.9 170
15:00 - 15:30 19.8 20.2 19.5 43 0.0 10.1 315 20.2 1020.2 137
15:30 - 16:00 19.4 19.5 19.2 44 0.0 9.4 319 20.2 1020.4 71
16:00 - 16:30 17.8 19.2 16.8 55 0.0 5.4 90 10.1 1020.7 29
16:30 - 17:00 16.7 16.9 16.5 59 0.0 5.8 96 9.4 1020.8 9
17:00 - 17:30 16.2 16.5 16.0 61 0.0 4.3 98 9.4 1021.0 0
17:30 - 18:00 15.9 16.1 15.7 64 0.0 2.5 91 6.5 1021.1 0
18:00 - 18:30 15.6 16.0 15.3 65 0.0 4.7 77 11.9 1021.5 0
18:30 - 19:00 15.0 15.3 14.7 67 0.0 5.0 91 10.8 1021.9 0
19:00 - 19:30 14.7 14.8 14.6 65 0.0 3.6 67 8.3 1022.2 0
19:30 - 20:00 14.6 14.7 14.5 64 0.0 5.0 61 13.3 1022.3 0
20:00 - 20:30 14.4 14.5 14.4 69 0.0 5.0 59 10.8 1022.6 0
20:30 - 21:00 14.3 14.4 14.2 73 0.0 4.7 74 9.0 1022.9 0
21:00 - 21:30 14.2 14.2 14.1 75 0.0 4.7 66 11.2 1023.4 0
21:30 - 22:00 14.1 14.2 14.0 75 0.0 2.5 31 6.8 1023.7 0
22:00 - 22:30 14.1 14.2 14.0 75 0.0 4.7 316 9.0 1023.6 0
22:30 - 23:00 14.3 14.5 14.1 72 0.0 2.2 299 5.0 1023.8 0
23:00 - 23:30 14.5 14.6 14.2 67 0.0 4.3 342 13.0 1023.7 0

Les dades en taronja només han passat un control de qualitat automàtic. Resta pendent la seva validació definitiva.